sensor_id;sensor_type;location;lat;lon;timestamp;temperature;humidity
58993;DHT22;44782;0.000;0.000;2023-10-19T00:02:03;18.00;65.50
58993;DHT22;44782;0.000;0.000;2023-10-19T00:04:19;18.00;64.70
58993;DHT22;44782;0.000;0.000;2023-10-19T00:06:37;18.00;64.70
58993;DHT22;44782;0.000;0.000;2023-10-19T00:08:55;18.00;64.80
58993;DHT22;44782;0.000;0.000;2023-10-19T00:11:11;18.00;64.70
58993;DHT22;44782;0.000;0.000;2023-10-19T00:13:41;18.00;64.70
58993;DHT22;44782;0.000;0.000;2023-10-19T00:15:59;18.00;64.70
58993;DHT22;44782;0.000;0.000;2023-10-19T00:18:15;18.00;64.80
58993;DHT22;44782;0.000;0.000;2023-10-19T00:20:31;18.00;64.70
58993;DHT22;44782;0.000;0.000;2023-10-19T00:22:50;18.00;64.70
58993;DHT22;44782;0.000;0.000;2023-10-19T00:25:08;18.00;64.80
58993;DHT22;44782;0.000;0.000;2023-10-19T00:27:24;18.00;64.80
58993;DHT22;44782;0.000;0.000;2023-10-19T00:29:42;18.00;64.80
58993;DHT22;44782;0.000;0.000;2023-10-19T00:32:04;18.00;64.70
58993;DHT22;44782;0.000;0.000;2023-10-19T00:34:22;18.00;64.80
58993;DHT22;44782;0.000;0.000;2023-10-19T00:36:38;18.00;64.80
58993;DHT22;44782;0.000;0.000;2023-10-19T00:38:55;18.00;64.80
58993;DHT22;44782;0.000;0.000;2023-10-19T00:41:12;17.90;64.60
58993;DHT22;44782;0.000;0.000;2023-10-19T00:43:29;18.00;64.70
58993;DHT22;44782;0.000;0.000;2023-10-19T00:45:49;18.00;64.70
58993;DHT22;44782;0.000;0.000;2023-10-19T00:48:08;18.00;64.80
58993;DHT22;44782;0.000;0.000;2023-10-19T00:50:26;18.00;64.90
58993;DHT22;44782;0.000;0.000;2023-10-19T00:52:46;18.00;64.70
58993;DHT22;44782;0.000;0.000;2023-10-19T00:55:05;18.00;64.70
58993;DHT22;44782;0.000;0.000;2023-10-19T00:57:23;18.00;64.70
58993;DHT22;44782;0.000;0.000;2023-10-19T00:59:49;18.00;64.70
58993;DHT22;44782;0.000;0.000;2023-10-19T01:02:17;18.00;64.70
58993;DHT22;44782;0.000;0.000;2023-10-19T01:04:36;17.90;64.60
58993;DHT22;44782;0.000;0.000;2023-10-19T01:06:52;18.00;64.70
58993;DHT22;44782;0.000;0.000;2023-10-19T01:09:22;17.90;64.70
58993;DHT22;44782;0.000;0.000;2023-10-19T01:11:39;18.00;64.80
58993;DHT22;44782;0.000;0.000;2023-10-19T01:13:57;18.00;64.70
58993;DHT22;44782;0.000;0.000;2023-10-19T01:16:15;17.90;64.60
58993;DHT22;44782;0.000;0.000;2023-10-19T01:18:36;18.00;64.80
58993;DHT22;44782;0.000;0.000;2023-10-19T01:20:52;18.00;64.80
58993;DHT22;44782;0.000;0.000;2023-10-19T01:23:10;18.00;64.80
58993;DHT22;44782;0.000;0.000;2023-10-19T01:25:51;18.00;64.90
58993;DHT22;44782;0.000;0.000;2023-10-19T01:28:10;18.00;64.80
58993;DHT22;44782;0.000;0.000;2023-10-19T01:30:26;18.00;64.90
58993;DHT22;44782;0.000;0.000;2023-10-19T01:32:42;18.00;64.90
58993;DHT22;44782;0.000;0.000;2023-10-19T01:34:58;17.90;64.80
58993;DHT22;44782;0.000;0.000;2023-10-19T01:37:13;18.00;65.00
58993;DHT22;44782;0.000;0.000;2023-10-19T01:39:33;18.00;65.00
58993;DHT22;44782;0.000;0.000;2023-10-19T01:41:50;18.00;65.00
58993;DHT22;44782;0.000;0.000;2023-10-19T01:44:06;18.00;65.00
58993;DHT22;44782;0.000;0.000;2023-10-19T01:46:23;18.00;65.00
58993;DHT22;44782;0.000;0.000;2023-10-19T01:48:39;17.90;64.90
58993;DHT22;44782;0.000;0.000;2023-10-19T01:50:56;18.00;65.00
58993;DHT22;44782;0.000;0.000;2023-10-19T01:53:12;18.00;65.00
58993;DHT22;44782;0.000;0.000;2023-10-19T01:55:37;17.90;64.90
58993;DHT22;44782;0.000;0.000;2023-10-19T01:57:53;18.00;65.00
58993;DHT22;44782;0.000;0.000;2023-10-19T02:00:09;17.90;64.90
58993;DHT22;44782;0.000;0.000;2023-10-19T02:02:26;17.90;64.90
58993;DHT22;44782;0.000;0.000;2023-10-19T02:04:42;18.00;65.00
58993;DHT22;44782;0.000;0.000;2023-10-19T02:06:58;17.90;64.90
58993;DHT22;44782;0.000;0.000;2023-10-19T02:09:16;18.00;65.00
58993;DHT22;44782;0.000;0.000;2023-10-19T02:11:35;18.00;65.00
58993;DHT22;44782;0.000;0.000;2023-10-19T02:13:57;17.90;64.90
58993;DHT22;44782;0.000;0.000;2023-10-19T02:16:20;17.90;64.90
58993;DHT22;44782;0.000;0.000;2023-10-19T02:18:38;17.90;64.90
58993;DHT22;44782;0.000;0.000;2023-10-19T02:20:54;18.00;65.00
58993;DHT22;44782;0.000;0.000;2023-10-19T02:23:11;17.90;64.90
58993;DHT22;44782;0.000;0.000;2023-10-19T02:25:27;17.90;64.90
58993;DHT22;44782;0.000;0.000;2023-10-19T02:27:46;17.90;64.90
58993;DHT22;44782;0.000;0.000;2023-10-19T02:30:02;17.90;64.90
58993;DHT22;44782;0.000;0.000;2023-10-19T02:32:19;17.90;64.90
58993;DHT22;44782;0.000;0.000;2023-10-19T02:34:36;17.90;64.90
58993;DHT22;44782;0.000;0.000;2023-10-19T02:36:51;17.90;64.90
58993;DHT22;44782;0.000;0.000;2023-10-19T02:39:09;17.90;64.90
58993;DHT22;44782;0.000;0.000;2023-10-19T02:41:26;17.90;64.90
58993;DHT22;44782;0.000;0.000;2023-10-19T02:43:42;17.90;64.80
58993;DHT22;44782;0.000;0.000;2023-10-19T02:46:01;18.00;65.00
58993;DHT22;44782;0.000;0.000;2023-10-19T02:48:18;17.90;64.90
58993;DHT22;44782;0.000;0.000;2023-10-19T02:50:34;17.90;64.90
58993;DHT22;44782;0.000;0.000;2023-10-19T02:52:51;17.90;64.80
58993;DHT22;44782;0.000;0.000;2023-10-19T02:55:07;17.90;64.80
58993;DHT22;44782;0.000;0.000;2023-10-19T02:57:23;17.90;64.80
58993;DHT22;44782;0.000;0.000;2023-10-19T02:59:38;17.90;64.90
58993;DHT22;44782;0.000;0.000;2023-10-19T03:01:59;17.90;64.80
58993;DHT22;44782;0.000;0.000;2023-10-19T03:04:23;17.90;64.80
58993;DHT22;44782;0.000;0.000;2023-10-19T03:06:41;17.90;64.90
58993;DHT22;44782;0.000;0.000;2023-10-19T03:08:57;17.90;64.90
58993;DHT22;44782;0.000;0.000;2023-10-19T03:11:31;17.90;64.90
58993;DHT22;44782;0.000;0.000;2023-10-19T03:13:48;17.90;64.90
58993;DHT22;44782;0.000;0.000;2023-10-19T03:16:05;17.90;64.90
58993;DHT22;44782;0.000;0.000;2023-10-19T03:18:24;17.90;64.90
58993;DHT22;44782;0.000;0.000;2023-10-19T03:20:41;17.90;64.90
58993;DHT22;44782;0.000;0.000;2023-10-19T03:22:56;17.90;65.00
58993;DHT22;44782;0.000;0.000;2023-10-19T03:25:16;17.90;64.90
58993;DHT22;44782;0.000;0.000;2023-10-19T03:27:50;17.90;65.80
58993;DHT22;44782;0.000;0.000;2023-10-19T03:30:07;17.90;65.00
58993;DHT22;44782;0.000;0.000;2023-10-19T03:32:26;17.90;64.90
58993;DHT22;44782;0.000;0.000;2023-10-19T03:34:41;17.90;64.90
58993;DHT22;44782;0.000;0.000;2023-10-19T03:37:03;17.90;64.90
58993;DHT22;44782;0.000;0.000;2023-10-19T03:39:22;17.90;65.00
58993;DHT22;44782;0.000;0.000;2023-10-19T03:41:39;17.90;64.90
58993;DHT22;44782;0.000;0.000;2023-10-19T03:43:57;17.90;64.90
58993;DHT22;44782;0.000;0.000;2023-10-19T03:46:13;17.90;64.90
58993;DHT22;44782;0.000;0.000;2023-10-19T03:48:47;17.90;64.90
58993;DHT22;44782;0.000;0.000;2023-10-19T03:51:03;17.90;64.90
58993;DHT22;44782;0.000;0.000;2023-10-19T03:53:20;17.90;64.90
58993;DHT22;44782;0.000;0.000;2023-10-19T03:55:36;17.90;64.90
58993;DHT22;44782;0.000;0.000;2023-10-19T03:57:54;17.90;64.90
58993;DHT22;44782;0.000;0.000;2023-10-19T04:00:13;17.90;64.80
58993;DHT22;44782;0.000;0.000;2023-10-19T04:02:35;17.90;64.80
58993;DHT22;44782;0.000;0.000;2023-10-19T04:04:52;17.90;64.80
58993;DHT22;44782;0.000;0.000;2023-10-19T04:07:11;17.90;64.90
58993;DHT22;44782;0.000;0.000;2023-10-19T04:09:36;17.90;64.90
58993;DHT22;44782;0.000;0.000;2023-10-19T04:11:56;17.90;64.90
58993;DHT22;44782;0.000;0.000;2023-10-19T04:14:12;17.90;64.80
58993;DHT22;44782;0.000;0.000;2023-10-19T04:16:30;17.90;64.80
58993;DHT22;44782;0.000;0.000;2023-10-19T04:18:47;17.90;64.80
58993;DHT22;44782;0.000;0.000;2023-10-19T04:21:04;17.90;64.80
58993;DHT22;44782;0.000;0.000;2023-10-19T04:23:20;17.90;64.90
58993;DHT22;44782;0.000;0.000;2023-10-19T04:25:37;17.90;64.80
58993;DHT22;44782;0.000;0.000;2023-10-19T04:27:52;17.90;64.80
58993;DHT22;44782;0.000;0.000;2023-10-19T04:30:10;17.90;64.80
58993;DHT22;44782;0.000;0.000;2023-10-19T04:32:31;17.90;64.80
58993;DHT22;44782;0.000;0.000;2023-10-19T04:34:47;17.90;64.80
58993;DHT22;44782;0.000;0.000;2023-10-19T04:37:03;17.90;64.80
58993;DHT22;44782;0.000;0.000;2023-10-19T04:39:18;17.90;64.80
58993;DHT22;44782;0.000;0.000;2023-10-19T04:41:37;17.90;64.90
58993;DHT22;44782;0.000;0.000;2023-10-19T04:43:52;17.90;64.80
58993;DHT22;44782;0.000;0.000;2023-10-19T04:46:09;17.90;64.90
58993;DHT22;44782;0.000;0.000;2023-10-19T04:48:28;17.90;64.80
58993;DHT22;44782;0.000;0.000;2023-10-19T04:50:46;17.90;64.80
58993;DHT22;44782;0.000;0.000;2023-10-19T04:53:02;17.90;64.80
58993;DHT22;44782;0.000;0.000;2023-10-19T04:55:18;17.90;64.80
58993;DHT22;44782;0.000;0.000;2023-10-19T04:57:33;17.90;64.80
58993;DHT22;44782;0.000;0.000;2023-10-19T04:59:49;17.90;64.80
58993;DHT22;44782;0.000;0.000;2023-10-19T05:02:05;17.90;64.80
58993;DHT22;44782;0.000;0.000;2023-10-19T05:04:21;17.90;64.80
58993;DHT22;44782;0.000;0.000;2023-10-19T05:06:37;17.90;64.80
58993;DHT22;44782;0.000;0.000;2023-10-19T05:08:54;17.80;64.70
58993;DHT22;44782;0.000;0.000;2023-10-19T05:11:10;17.90;64.80
58993;DHT22;44782;0.000;0.000;2023-10-19T05:13:26;17.90;64.80
58993;DHT22;44782;0.000;0.000;2023-10-19T05:15:42;17.90;64.90
58993;DHT22;44782;0.000;0.000;2023-10-19T05:17:58;17.90;64.90
58993;DHT22;44782;0.000;0.000;2023-10-19T05:20:14;17.90;64.90
58993;DHT22;44782;0.000;0.000;2023-10-19T05:22:29;17.90;64.80
58993;DHT22;44782;0.000;0.000;2023-10-19T05:24:47;17.90;64.80
58993;DHT22;44782;0.000;0.000;2023-10-19T05:27:03;17.80;64.80
58993;DHT22;44782;0.000;0.000;2023-10-19T05:29:22;17.80;64.80
58993;DHT22;44782;0.000;0.000;2023-10-19T05:31:39;17.80;64.80
58993;DHT22;44782;0.000;0.000;2023-10-19T05:33:55;17.80;64.90
58993;DHT22;44782;0.000;0.000;2023-10-19T05:36:11;17.90;65.10
58993;DHT22;44782;0.000;0.000;2023-10-19T05:38:27;17.90;65.20
58993;DHT22;44782;0.000;0.000;2023-10-19T05:40:43;17.90;65.30
58993;DHT22;44782;0.000;0.000;2023-10-19T05:42:58;17.90;65.40
58993;DHT22;44782;0.000;0.000;2023-10-19T05:45:16;17.90;65.50
58993;DHT22;44782;0.000;0.000;2023-10-19T05:47:31;17.80;65.60
58993;DHT22;44782;0.000;0.000;2023-10-19T05:49:47;17.90;65.80
58993;DHT22;44782;0.000;0.000;2023-10-19T05:52:03;17.90;65.90
58993;DHT22;44782;0.000;0.000;2023-10-19T05:54:19;17.90;66.00
58993;DHT22;44782;0.000;0.000;2023-10-19T05:56:34;17.90;66.00
58993;DHT22;44782;0.000;0.000;2023-10-19T05:58:51;17.90;66.90
58993;DHT22;44782;0.000;0.000;2023-10-19T06:01:09;17.90;66.30
58993;DHT22;44782;0.000;0.000;2023-10-19T06:03:24;17.90;66.30
58993;DHT22;44782;0.000;0.000;2023-10-19T06:05:40;17.90;67.10
58993;DHT22;44782;0.000;0.000;2023-10-19T06:07:56;17.90;66.40
58993;DHT22;44782;0.000;0.000;2023-10-19T06:10:30;17.90;66.40
58993;DHT22;44782;0.000;0.000;2023-10-19T06:12:49;17.90;66.50
58993;DHT22;44782;0.000;0.000;2023-10-19T06:15:06;17.90;66.60
58993;DHT22;44782;0.000;0.000;2023-10-19T06:17:22;17.90;66.50
58993;DHT22;44782;0.000;0.000;2023-10-19T06:19:38;17.90;66.60
58993;DHT22;44782;0.000;0.000;2023-10-19T06:21:54;17.90;66.60
58993;DHT22;44782;0.000;0.000;2023-10-19T06:24:09;17.90;66.60
58993;DHT22;44782;0.000;0.000;2023-10-19T06:26:29;17.90;66.60
58993;DHT22;44782;0.000;0.000;2023-10-19T06:28:45;17.90;66.70
58993;DHT22;44782;0.000;0.000;2023-10-19T06:31:01;17.90;66.70
58993;DHT22;44782;0.000;0.000;2023-10-19T06:33:16;17.90;66.70
58993;DHT22;44782;0.000;0.000;2023-10-19T06:35:33;17.90;66.70
58993;DHT22;44782;0.000;0.000;2023-10-19T06:37:49;17.90;66.70
58993;DHT22;44782;0.000;0.000;2023-10-19T06:40:05;17.90;66.80
58993;DHT22;44782;0.000;0.000;2023-10-19T06:42:21;17.90;66.80
58993;DHT22;44782;0.000;0.000;2023-10-19T06:44:37;17.90;66.80
58993;DHT22;44782;0.000;0.000;2023-10-19T06:46:53;17.90;66.80
58993;DHT22;44782;0.000;0.000;2023-10-19T06:49:08;17.90;66.80
58993;DHT22;44782;0.000;0.000;2023-10-19T06:51:24;17.90;66.80
58993;DHT22;44782;0.000;0.000;2023-10-19T06:53:41;17.90;66.80
58993;DHT22;44782;0.000;0.000;2023-10-19T06:55:57;17.90;66.80
58993;DHT22;44782;0.000;0.000;2023-10-19T06:58:13;17.90;66.80
58993;DHT22;44782;0.000;0.000;2023-10-19T07:00:30;17.90;66.80
58993;DHT22;44782;0.000;0.000;2023-10-19T07:02:50;17.90;66.80
58993;DHT22;44782;0.000;0.000;2023-10-19T07:05:08;17.90;66.70
58993;DHT22;44782;0.000;0.000;2023-10-19T07:07:27;17.90;66.70
58993;DHT22;44782;0.000;0.000;2023-10-19T07:09:43;17.90;66.70
58993;DHT22;44782;0.000;0.000;2023-10-19T07:11:58;17.90;66.60
58993;DHT22;44782;0.000;0.000;2023-10-19T07:14:16;17.90;66.60
58993;DHT22;44782;0.000;0.000;2023-10-19T07:16:31;17.90;66.60
58993;DHT22;44782;0.000;0.000;2023-10-19T07:18:47;17.90;66.50
58993;DHT22;44782;0.000;0.000;2023-10-19T07:21:03;17.90;66.50
58993;DHT22;44782;0.000;0.000;2023-10-19T07:23:18;17.90;66.50
58993;DHT22;44782;0.000;0.000;2023-10-19T07:25:36;17.90;66.50
58993;DHT22;44782;0.000;0.000;2023-10-19T07:27:58;17.90;66.50
58993;DHT22;44782;0.000;0.000;2023-10-19T07:30:15;17.90;66.50
58993;DHT22;44782;0.000;0.000;2023-10-19T07:32:36;17.90;66.50
58993;DHT22;44782;0.000;0.000;2023-10-19T07:34:54;17.90;66.40
58993;DHT22;44782;0.000;0.000;2023-10-19T07:37:13;17.90;66.40
58993;DHT22;44782;0.000;0.000;2023-10-19T07:39:30;17.90;66.40
58993;DHT22;44782;0.000;0.000;2023-10-19T07:41:50;17.90;66.40
58993;DHT22;44782;0.000;0.000;2023-10-19T07:44:06;17.90;66.40
58993;DHT22;44782;0.000;0.000;2023-10-19T07:46:22;17.90;66.40
58993;DHT22;44782;0.000;0.000;2023-10-19T07:48:37;17.90;66.30
58993;DHT22;44782;0.000;0.000;2023-10-19T07:50:53;17.90;66.30
58993;DHT22;44782;0.000;0.000;2023-10-19T07:53:09;17.90;66.30
58993;DHT22;44782;0.000;0.000;2023-10-19T07:55:25;17.90;66.30
58993;DHT22;44782;0.000;0.000;2023-10-19T07:57:42;17.90;66.30
58993;DHT22;44782;0.000;0.000;2023-10-19T07:59:57;17.90;66.30
58993;DHT22;44782;0.000;0.000;2023-10-19T08:02:14;17.90;66.30
58993;DHT22;44782;0.000;0.000;2023-10-19T08:04:30;17.90;66.20
58993;DHT22;44782;0.000;0.000;2023-10-19T08:06:46;17.90;66.20
58993;DHT22;44782;0.000;0.000;2023-10-19T08:09:03;17.90;66.20
58993;DHT22;44782;0.000;0.000;2023-10-19T08:11:20;17.90;66.20
58993;DHT22;44782;0.000;0.000;2023-10-19T08:13:37;17.90;66.20
58993;DHT22;44782;0.000;0.000;2023-10-19T08:15:53;17.90;66.20
58993;DHT22;44782;0.000;0.000;2023-10-19T08:18:08;17.90;66.20
58993;DHT22;44782;0.000;0.000;2023-10-19T08:20:27;17.90;66.20
58993;DHT22;44782;0.000;0.000;2023-10-19T08:22:45;17.90;66.10
58993;DHT22;44782;0.000;0.000;2023-10-19T08:25:03;17.90;66.00
58993;DHT22;44782;0.000;0.000;2023-10-19T08:27:20;17.90;66.00
58993;DHT22;44782;0.000;0.000;2023-10-19T08:29:37;17.90;66.10
58993;DHT22;44782;0.000;0.000;2023-10-19T08:31:53;17.90;66.00
58993;DHT22;44782;0.000;0.000;2023-10-19T08:34:09;17.90;66.00
58993;DHT22;44782;0.000;0.000;2023-10-19T08:36:27;17.90;66.00
58993;DHT22;44782;0.000;0.000;2023-10-19T08:38:43;17.90;66.00
58993;DHT22;44782;0.000;0.000;2023-10-19T08:40:59;17.90;66.00
58993;DHT22;44782;0.000;0.000;2023-10-19T08:43:15;17.90;66.00
58993;DHT22;44782;0.000;0.000;2023-10-19T08:45:34;17.90;66.00
58993;DHT22;44782;0.000;0.000;2023-10-19T08:47:55;17.90;65.90
58993;DHT22;44782;0.000;0.000;2023-10-19T08:50:14;17.90;65.90
58993;DHT22;44782;0.000;0.000;2023-10-19T08:52:30;17.90;66.00
58993;DHT22;44782;0.000;0.000;2023-10-19T08:54:47;17.90;65.90
58993;DHT22;44782;0.000;0.000;2023-10-19T08:57:03;17.90;65.90
58993;DHT22;44782;0.000;0.000;2023-10-19T08:59:19;17.90;65.90
58993;DHT22;44782;0.000;0.000;2023-10-19T09:01:35;17.90;65.80
58993;DHT22;44782;0.000;0.000;2023-10-19T09:03:51;17.90;65.80
58993;DHT22;44782;0.000;0.000;2023-10-19T09:06:07;17.90;65.80
58993;DHT22;44782;0.000;0.000;2023-10-19T09:08:22;17.90;65.70
58993;DHT22;44782;0.000;0.000;2023-10-19T09:10:38;17.90;65.80
58993;DHT22;44782;0.000;0.000;2023-10-19T09:13:07;17.90;65.70
58993;DHT22;44782;0.000;0.000;2023-10-19T09:15:28;17.90;65.60
58993;DHT22;44782;0.000;0.000;2023-10-19T09:17:46;17.90;65.70
58993;DHT22;44782;0.000;0.000;2023-10-19T09:20:06;17.90;65.70
58993;DHT22;44782;0.000;0.000;2023-10-19T09:22:25;17.90;65.70
58993;DHT22;44782;0.000;0.000;2023-10-19T09:24:40;18.00;65.70
58993;DHT22;44782;0.000;0.000;2023-10-19T09:26:57;18.00;65.70
58993;DHT22;44782;0.000;0.000;2023-10-19T09:29:17;17.90;65.60
58993;DHT22;44782;0.000;0.000;2023-10-19T09:31:34;17.90;65.60
58993;DHT22;44782;0.000;0.000;2023-10-19T09:33:50;17.90;65.70
58993;DHT22;44782;0.000;0.000;2023-10-19T09:36:07;18.00;65.70
58993;DHT22;44782;0.000;0.000;2023-10-19T09:38:31;17.90;65.60
58993;DHT22;44782;0.000;0.000;2023-10-19T09:40:51;18.00;65.80
58993;DHT22;44782;0.000;0.000;2023-10-19T09:43:15;17.90;65.60
58993;DHT22;44782;0.000;0.000;2023-10-19T09:45:32;18.00;65.70
58993;DHT22;44782;0.000;0.000;2023-10-19T09:47:54;18.00;65.70
58993;DHT22;44782;0.000;0.000;2023-10-19T09:50:10;18.00;65.70
58993;DHT22;44782;0.000;0.000;2023-10-19T09:52:28;18.00;65.60
58993;DHT22;44782;0.000;0.000;2023-10-19T09:55:00;18.00;65.60
58993;DHT22;44782;0.000;0.000;2023-10-19T09:57:30;18.00;65.50
58993;DHT22;44782;0.000;0.000;2023-10-19T09:59:51;18.00;65.50
58993;DHT22;44782;0.000;0.000;2023-10-19T10:02:12;18.00;65.50
58993;DHT22;44782;0.000;0.000;2023-10-19T10:04:32;18.00;65.50
58993;DHT22;44782;0.000;0.000;2023-10-19T10:09:06;18.00;65.30
58993;DHT22;44782;0.000;0.000;2023-10-19T10:11:27;18.00;65.50
58993;DHT22;44782;0.000;0.000;2023-10-19T10:13:44;18.00;65.30
58993;DHT22;44782;0.000;0.000;2023-10-19T10:16:06;18.00;66.10
58993;DHT22;44782;0.000;0.000;2023-10-19T10:18:25;18.00;65.30
58993;DHT22;44782;0.000;0.000;2023-10-19T10:20:41;18.00;65.20
58993;DHT22;44782;0.000;0.000;2023-10-19T10:23:20;18.00;65.30
58993;DHT22;44782;0.000;0.000;2023-10-19T10:25:45;18.00;65.10
58993;DHT22;44782;0.000;0.000;2023-10-19T10:28:04;18.00;65.30
58993;DHT22;44782;0.000;0.000;2023-10-19T10:30:20;18.00;65.30
58993;DHT22;44782;0.000;0.000;2023-10-19T10:32:52;18.00;65.30
58993;DHT22;44782;0.000;0.000;2023-10-19T10:35:09;18.10;65.20
58993;DHT22;44782;0.000;0.000;2023-10-19T10:37:25;18.10;65.30
58993;DHT22;44782;0.000;0.000;2023-10-19T10:39:41;18.00;65.30
58993;DHT22;44782;0.000;0.000;2023-10-19T10:42:02;18.00;65.20
58993;DHT22;44782;0.000;0.000;2023-10-19T10:44:20;18.00;65.20
58993;DHT22;44782;0.000;0.000;2023-10-19T10:46:40;18.00;65.20
58993;DHT22;44782;0.000;0.000;2023-10-19T10:48:55;18.10;65.30
58993;DHT22;44782;0.000;0.000;2023-10-19T10:51:22;18.10;65.30
58993;DHT22;44782;0.000;0.000;2023-10-19T10:53:40;18.10;65.20
58993;DHT22;44782;0.000;0.000;2023-10-19T10:56:00;18.10;65.30
58993;DHT22;44782;0.000;0.000;2023-10-19T10:58:17;18.10;65.30
58993;DHT22;44782;0.000;0.000;2023-10-19T11:00:33;18.10;65.30
58993;DHT22;44782;0.000;0.000;2023-10-19T11:03:03;18.10;65.30
58993;DHT22;44782;0.000;0.000;2023-10-19T11:05:21;18.10;65.20
58993;DHT22;44782;0.000;0.000;2023-10-19T11:07:36;18.10;65.30
58993;DHT22;44782;0.000;0.000;2023-10-19T11:09:52;18.10;65.30
58993;DHT22;44782;0.000;0.000;2023-10-19T11:12:11;18.10;65.30
58993;DHT22;44782;0.000;0.000;2023-10-19T11:14:27;18.10;65.30
58993;DHT22;44782;0.000;0.000;2023-10-19T11:16:43;18.10;65.30
58993;DHT22;44782;0.000;0.000;2023-10-19T11:19:01;18.10;65.40
58993;DHT22;44782;0.000;0.000;2023-10-19T11:21:17;18.10;65.30
58993;DHT22;44782;0.000;0.000;2023-10-19T11:23:37;18.10;65.30
58993;DHT22;44782;0.000;0.000;2023-10-19T11:25:57;18.10;65.30
58993;DHT22;44782;0.000;0.000;2023-10-19T11:28:17;18.10;65.30
58993;DHT22;44782;0.000;0.000;2023-10-19T11:30:34;18.10;65.30
58993;DHT22;44782;0.000;0.000;2023-10-19T11:32:50;18.10;65.40
58993;DHT22;44782;0.000;0.000;2023-10-19T11:35:12;18.10;65.40
58993;DHT22;44782;0.000;0.000;2023-10-19T11:37:28;18.10;65.40
58993;DHT22;44782;0.000;0.000;2023-10-19T11:39:43;18.10;65.40
58993;DHT22;44782;0.000;0.000;2023-10-19T11:41:59;18.10;65.40
58993;DHT22;44782;0.000;0.000;2023-10-19T11:44:15;18.10;65.40
58993;DHT22;44782;0.000;0.000;2023-10-19T11:46:30;18.10;65.50
58993;DHT22;44782;0.000;0.000;2023-10-19T11:48:46;18.10;65.40
58993;DHT22;44782;0.000;0.000;2023-10-19T11:51:03;18.10;65.40
58993;DHT22;44782;0.000;0.000;2023-10-19T11:53:19;18.10;65.40
58993;DHT22;44782;0.000;0.000;2023-10-19T11:55:35;18.10;65.40
58993;DHT22;44782;0.000;0.000;2023-10-19T11:57:51;18.10;65.30
58993;DHT22;44782;0.000;0.000;2023-10-19T12:00:07;18.10;65.30
58993;DHT22;44782;0.000;0.000;2023-10-19T12:02:29;18.10;65.30
58993;DHT22;44782;0.000;0.000;2023-10-19T12:04:46;18.20;65.50
58993;DHT22;44782;0.000;0.000;2023-10-19T12:07:02;18.10;65.30
58993;DHT22;44782;0.000;0.000;2023-10-19T12:09:19;18.10;65.30
58993;DHT22;44782;0.000;0.000;2023-10-19T12:11:39;18.20;65.30
58993;DHT22;44782;0.000;0.000;2023-10-19T12:13:55;18.20;65.40
58993;DHT22;44782;0.000;0.000;2023-10-19T12:16:12;18.20;65.40
58993;DHT22;44782;0.000;0.000;2023-10-19T12:18:27;18.20;65.50
58993;DHT22;44782;0.000;0.000;2023-10-19T12:20:44;18.20;65.50
58993;DHT22;44782;0.000;0.000;2023-10-19T12:23:01;18.20;65.50
58993;DHT22;44782;0.000;0.000;2023-10-19T12:25:16;18.20;65.50
58993;DHT22;44782;0.000;0.000;2023-10-19T12:27:32;18.20;65.60
58993;DHT22;44782;0.000;0.000;2023-10-19T12:29:48;18.20;65.60
58993;DHT22;44782;0.000;0.000;2023-10-19T12:32:04;18.20;65.50
58993;DHT22;44782;0.000;0.000;2023-10-19T12:34:20;18.20;65.60
58993;DHT22;44782;0.000;0.000;2023-10-19T12:36:38;18.20;65.60
58993;DHT22;44782;0.000;0.000;2023-10-19T12:38:54;18.20;65.60
58993;DHT22;44782;0.000;0.000;2023-10-19T12:41:10;18.20;65.60
58993;DHT22;44782;0.000;0.000;2023-10-19T12:43:26;18.20;65.60
58993;DHT22;44782;0.000;0.000;2023-10-19T12:45:42;18.20;65.60
58993;DHT22;44782;0.000;0.000;2023-10-19T12:47:59;18.30;66.50
58993;DHT22;44782;0.000;0.000;2023-10-19T12:50:15;18.20;65.60
58993;DHT22;44782;0.000;0.000;2023-10-19T12:52:31;18.20;65.60
58993;DHT22;44782;0.000;0.000;2023-10-19T12:54:51;18.20;65.60
58993;DHT22;44782;0.000;0.000;2023-10-19T12:57:14;18.20;65.60
58993;DHT22;44782;0.000;0.000;2023-10-19T12:59:30;18.20;65.60
58993;DHT22;44782;0.000;0.000;2023-10-19T13:01:46;18.20;65.60
58993;DHT22;44782;0.000;0.000;2023-10-19T13:04:04;18.30;65.60
58993;DHT22;44782;0.000;0.000;2023-10-19T13:06:29;18.20;65.60
58993;DHT22;44782;0.000;0.000;2023-10-19T13:08:45;18.30;65.60
58993;DHT22;44782;0.000;0.000;2023-10-19T13:11:01;18.30;65.60
58993;DHT22;44782;0.000;0.000;2023-10-19T13:13:17;18.30;65.60
58993;DHT22;44782;0.000;0.000;2023-10-19T13:15:36;18.30;65.60
58993;DHT22;44782;0.000;0.000;2023-10-19T13:17:51;18.30;65.50
58993;DHT22;44782;0.000;0.000;2023-10-19T13:20:08;18.20;65.60
58993;DHT22;44782;0.000;0.000;2023-10-19T13:22:33;18.30;65.60
58993;DHT22;44782;0.000;0.000;2023-10-19T13:24:49;18.30;65.50
58993;DHT22;44782;0.000;0.000;2023-10-19T13:27:04;18.30;65.50
58993;DHT22;44782;0.000;0.000;2023-10-19T13:29:20;18.30;65.50
58993;DHT22;44782;0.000;0.000;2023-10-19T13:31:38;18.30;65.50
58993;DHT22;44782;0.000;0.000;2023-10-19T13:33:53;18.30;65.50
58993;DHT22;44782;0.000;0.000;2023-10-19T13:36:10;18.30;65.50
58993;DHT22;44782;0.000;0.000;2023-10-19T13:38:25;18.30;65.50
58993;DHT22;44782;0.000;0.000;2023-10-19T13:40:41;18.30;65.50
58993;DHT22;44782;0.000;0.000;2023-10-19T13:42:58;18.30;65.50
58993;DHT22;44782;0.000;0.000;2023-10-19T13:45:14;18.30;65.50
58993;DHT22;44782;0.000;0.000;2023-10-19T13:47:30;18.30;65.50
58993;DHT22;44782;0.000;0.000;2023-10-19T13:49:49;18.30;65.40
58993;DHT22;44782;0.000;0.000;2023-10-19T13:52:05;18.30;65.40
58993;DHT22;44782;0.000;0.000;2023-10-19T13:54:20;18.30;65.50
58993;DHT22;44782;0.000;0.000;2023-10-19T13:56:36;18.30;65.40
58993;DHT22;44782;0.000;0.000;2023-10-19T13:58:51;18.30;65.30
58993;DHT22;44782;0.000;0.000;2023-10-19T14:01:10;18.30;65.30
58993;DHT22;44782;0.000;0.000;2023-10-19T14:03:26;18.30;65.30
58993;DHT22;44782;0.000;0.000;2023-10-19T14:05:43;18.30;65.40
58993;DHT22;44782;0.000;0.000;2023-10-19T14:08:04;18.30;65.40
58993;DHT22;44782;0.000;0.000;2023-10-19T14:10:20;18.30;65.40
58993;DHT22;44782;0.000;0.000;2023-10-19T14:12:37;18.30;65.40
58993;DHT22;44782;0.000;0.000;2023-10-19T14:14:52;18.30;65.40
58993;DHT22;44782;0.000;0.000;2023-10-19T14:17:08;18.30;65.40
58993;DHT22;44782;0.000;0.000;2023-10-19T14:19:24;18.30;65.30
58993;DHT22;44782;0.000;0.000;2023-10-19T14:21:41;18.30;65.40
58993;DHT22;44782;0.000;0.000;2023-10-19T14:24:00;18.30;65.40
58993;DHT22;44782;0.000;0.000;2023-10-19T14:26:15;18.30;65.30
58993;DHT22;44782;0.000;0.000;2023-10-19T14:28:32;18.30;65.40
58993;DHT22;44782;0.000;0.000;2023-10-19T14:30:51;18.30;65.30
58993;DHT22;44782;0.000;0.000;2023-10-19T14:33:06;18.30;65.30
58993;DHT22;44782;0.000;0.000;2023-10-19T14:35:26;18.30;65.30
58993;DHT22;44782;0.000;0.000;2023-10-19T14:37:46;18.30;65.30
58993;DHT22;44782;0.000;0.000;2023-10-19T14:40:03;18.30;65.30
58993;DHT22;44782;0.000;0.000;2023-10-19T14:42:19;18.30;65.30
58993;DHT22;44782;0.000;0.000;2023-10-19T14:44:34;18.30;65.30
58993;DHT22;44782;0.000;0.000;2023-10-19T14:46:50;18.30;65.30